createdAt,value
2022-10-26T00:01:48.703Z,100546.44
2022-10-26T00:04:18.244Z,100556.78
2022-10-26T00:06:46.282Z,100558.53
2022-10-26T00:09:14.597Z,100564.47
2022-10-26T00:11:42.640Z,100543.63
2022-10-26T00:14:10.786Z,100530.16
2022-10-26T00:16:38.757Z,100552.75
2022-10-26T00:19:07.885Z,100531.78
2022-10-26T00:21:37.447Z,100527.25
2022-10-26T00:24:05.753Z,100515.69
2022-10-26T00:26:33.769Z,100534.22
2022-10-26T00:29:01.794Z,100515.81
2022-10-26T00:31:29.981Z,100536.03
2022-10-26T00:33:58.269Z,100534.66
2022-10-26T00:36:27.422Z,100520.53
2022-10-26T00:38:58.301Z,100514.84
2022-10-26T00:41:29.910Z,100503.75
2022-10-26T00:43:59.669Z,100500.97
2022-10-26T00:46:30.701Z,100481.59
2022-10-26T00:49:11.034Z,100498.50
2022-10-26T00:51:43.530Z,100464.56
2022-10-26T00:54:18.439Z,100448.13
2022-10-26T00:56:47.533Z,100460.69
2022-10-26T00:59:17.471Z,100439.00
2022-10-26T01:01:47.981Z,100447.00
2022-10-26T01:04:16.897Z,100426.72
2022-10-26T01:06:45.983Z,100431.91
2022-10-26T01:09:15.686Z,100431.09
2022-10-26T01:11:43.709Z,100438.31
2022-10-26T01:14:13.872Z,100417.81
2022-10-26T01:16:58.696Z,100420.31
2022-10-26T01:19:58.363Z,100411.94
2022-10-26T01:22:30.536Z,100413.50
2022-10-26T01:25:13.601Z,100419.13
2022-10-26T01:27:42.664Z,100419.06
2022-10-26T01:30:20.186Z,100423.84
2022-10-26T01:32:55.373Z,100416.81
2022-10-26T01:35:29.211Z,100389.72
2022-10-26T01:38:02.169Z,100376.13
2022-10-26T01:40:36.677Z,100382.31
2022-10-26T01:43:09.120Z,100364.56
2022-10-26T01:45:42.740Z,100307.28
2022-10-26T01:48:15.018Z,100298.22
2022-10-26T01:50:47.067Z,100286.84
2022-10-26T01:53:16.570Z,100310.75
2022-10-26T01:55:48.276Z,100301.41
2022-10-26T01:58:53.850Z,100308.50
2022-10-26T02:01:53.388Z,100273.84
2022-10-26T02:04:35.000Z,100279.06
2022-10-26T02:07:05.493Z,100271.03
2022-10-26T02:09:43.253Z,100237.41
2022-10-26T02:12:19.051Z,100240.84
2022-10-26T02:14:51.505Z,100218.97
2022-10-26T02:17:29.056Z,100214.72
2022-10-26T02:20:02.060Z,100214.63
2022-10-26T02:22:33.690Z,100229.72
2022-10-26T02:25:06.917Z,100215.16
2022-10-26T02:27:42.863Z,100246.72
2022-10-26T02:30:13.754Z,100231.16
2022-10-26T02:32:48.041Z,100226.00
2022-10-26T02:35:18.815Z,100201.16
2022-10-26T02:37:49.870Z,100202.09
2022-10-26T02:40:22.067Z,100207.75
2022-10-26T02:42:53.085Z,100206.94
2022-10-26T02:45:27.872Z,100210.53
2022-10-26T02:47:58.095Z,100206.28
2022-10-26T02:50:35.078Z,100202.41
2022-10-26T02:53:11.592Z,100191.22
2022-10-26T02:55:49.653Z,100207.63
2022-10-26T02:58:23.343Z,100211.69
2022-10-26T03:00:52.368Z,100198.72
2022-10-26T03:03:22.641Z,100183.59
2022-10-26T03:05:50.851Z,100181.59
2022-10-26T03:08:19.092Z,100181.84
2022-10-26T03:10:47.457Z,100171.38
2022-10-26T03:13:15.654Z,100173.81
2022-10-26T03:15:43.747Z,100168.16
2022-10-26T03:18:16.545Z,100173.44
2022-10-26T03:20:46.667Z,100179.75
2022-10-26T03:23:14.867Z,100179.47
2022-10-26T03:25:42.913Z,100183.50
2022-10-26T03:28:10.985Z,100162.88
2022-10-26T03:30:40.921Z,100170.34
2022-10-26T03:33:08.992Z,100151.63
2022-10-26T03:35:39.722Z,100167.97
2022-10-26T03:38:15.844Z,100161.25
2022-10-26T03:40:44.246Z,100159.34
2022-10-26T03:43:12.251Z,100153.66
2022-10-26T03:45:42.391Z,100152.81
2022-10-26T03:48:10.451Z,100142.25
2022-10-26T03:50:38.597Z,100135.00
2022-10-26T03:53:07.128Z,100139.78
2022-10-26T03:55:36.774Z,100124.69
2022-10-26T03:58:05.921Z,100127.03
2022-10-26T04:00:33.978Z,100129.16
2022-10-26T04:03:02.219Z,100101.44
2022-10-26T04:05:31.102Z,100089.78
2022-10-26T04:08:03.084Z,100094.28
2022-10-26T04:10:31.758Z,100100.53
2022-10-26T04:13:02.408Z,100085.81
2022-10-26T04:15:30.848Z,100101.41
2022-10-26T04:17:59.482Z,100086.72
2022-10-26T04:20:28.263Z,100090.56
2022-10-26T04:23:00.619Z,100092.72
2022-10-26T04:25:32.857Z,100080.56
2022-10-26T04:28:04.179Z,100095.25
2022-10-26T04:30:32.487Z,100095.25
2022-10-26T04:33:00.564Z,100064.19
2022-10-26T04:35:29.060Z,100068.59
2022-10-26T04:38:00.202Z,100071.31
2022-10-26T04:40:28.481Z,100062.44
2022-10-26T04:42:56.700Z,100058.06
2022-10-26T04:45:28.197Z,100026.50
2022-10-26T04:48:05.283Z,100041.59
2022-10-26T04:50:33.594Z,100022.97
2022-10-26T04:53:01.647Z,100024.28
2022-10-26T04:55:29.702Z,99988.16
2022-10-26T04:58:00.273Z,99977.91
2022-10-26T05:00:33.057Z,99981.31
2022-10-26T05:03:01.844Z,99966.47
2022-10-26T05:05:30.488Z,99980.75
2022-10-26T05:07:58.979Z,99975.34
2022-10-26T05:10:28.840Z,99953.81
2022-10-26T05:12:59.354Z,99970.72
2022-10-26T05:15:28.336Z,99964.47
2022-10-26T05:17:59.032Z,99949.69
2022-10-26T05:20:31.112Z,99958.19
2022-10-26T05:23:01.179Z,99950.50
2022-10-26T05:25:31.432Z,99924.06
2022-10-26T05:28:04.225Z,99920.56
2022-10-26T05:30:34.149Z,99905.72
2022-10-26T05:33:04.369Z,99901.53
2022-10-26T05:35:33.290Z,99909.31
2022-10-26T05:38:02.128Z,99901.47
2022-10-26T05:40:30.154Z,99899.31
2022-10-26T05:43:02.116Z,99906.13
2022-10-26T05:45:30.440Z,99887.31
2022-10-26T05:48:01.613Z,99893.72
2022-10-26T05:50:32.925Z,99894.19
2022-10-26T05:53:00.798Z,99875.44
2022-10-26T05:55:29.743Z,99903.84
2022-10-26T05:57:58.196Z,99887.56
2022-10-26T06:00:28.479Z,99898.63
2022-10-26T06:03:09.153Z,99901.63
2022-10-26T06:05:45.691Z,99907.66
2022-10-26T06:08:14.423Z,99902.22
2022-10-26T06:10:42.939Z,99895.22
2022-10-26T06:13:11.380Z,99893.34
2022-10-26T06:15:47.489Z,99881.22
2022-10-26T06:18:24.742Z,99892.44
2022-10-26T06:21:13.517Z,99872.28
2022-10-26T06:23:52.817Z,99876.41
2022-10-26T06:26:32.694Z,99869.03
2022-10-26T06:29:17.828Z,99868.16
2022-10-26T06:31:46.342Z,99868.94
2022-10-26T06:34:22.385Z,99855.72
2022-10-26T06:39:29.261Z,99869.88
2022-10-26T06:41:58.788Z,99865.81
2022-10-26T06:44:27.221Z,99842.78
2022-10-26T06:47:04.293Z,99846.22
2022-10-26T06:49:37.280Z,99851.56
2022-10-26T06:52:20.035Z,99819.91
2022-10-26T06:54:51.538Z,99840.69
2022-10-26T06:57:21.437Z,99815.84
2022-10-26T06:59:52.951Z,99810.72
2022-10-26T07:02:23.715Z,99820.34
2022-10-26T07:04:51.586Z,99821.03
2022-10-26T07:07:23.203Z,99802.94
2022-10-26T07:09:51.483Z,99790.97
2022-10-26T07:12:19.406Z,99805.91
2022-10-26T07:14:47.389Z,99800.97
2022-10-26T07:17:17.026Z,99796.88
2022-10-26T07:19:45.730Z,99792.09
2022-10-26T07:22:13.819Z,99783.91
2022-10-26T07:24:43.235Z,99757.47
2022-10-26T07:27:11.184Z,99757.91
2022-10-26T07:29:39.681Z,99764.78
2022-10-26T07:32:07.791Z,99751.53
2022-10-26T07:34:35.787Z,99746.63
2022-10-26T07:37:03.780Z,99755.13
2022-10-26T07:39:32.756Z,99737.88
2022-10-26T07:42:02.251Z,99739.84
2022-10-26T07:44:30.674Z,99721.09
2022-10-26T07:46:58.622Z,99709.56
2022-10-26T07:49:27.875Z,99722.66
2022-10-26T07:51:56.869Z,99704.44
2022-10-26T07:54:24.939Z,99690.25
2022-10-26T07:56:55.042Z,99661.56
2022-10-26T07:59:25.465Z,99679.00
2022-10-26T08:02:05.751Z,99675.13
2022-10-26T08:04:36.708Z,99657.59
2022-10-26T08:07:05.022Z,99631.88
2022-10-26T08:09:33.113Z,99618.59
2022-10-26T08:12:01.123Z,99610.25
2022-10-26T08:14:30.743Z,99598.63
2022-10-26T08:16:59.132Z,99591.47
2022-10-26T08:19:27.400Z,99589.88
2022-10-26T08:21:55.416Z,99579.19
2022-10-26T08:24:23.366Z,99552.78
2022-10-26T08:26:51.345Z,99519.13
2022-10-26T08:29:19.458Z,99441.53
2022-10-26T08:31:50.267Z,99381.63
2022-10-26T08:34:18.375Z,99387.97
2022-10-26T08:36:46.575Z,99366.88
2022-10-26T08:39:15.374Z,99362.19
2022-10-26T08:41:44.990Z,99335.81
2022-10-26T08:44:24.937Z,99270.13
2022-10-26T08:46:59.624Z,99134.31
2022-10-26T08:49:32.084Z,99089.25
2022-10-26T08:52:03.231Z,99132.16
2022-10-26T08:54:39.800Z,99200.66
2022-10-26T08:57:17.959Z,99219.59
2022-10-26T08:59:52.024Z,99332.84
2022-10-26T09:02:22.398Z,99479.94
2022-10-26T09:05:00.273Z,100131.38
2022-10-26T09:07:50.076Z,100458.69
2022-10-26T09:10:39.356Z,99694.53
2022-10-26T09:13:16.354Z,100224.47
2022-10-26T09:15:55.962Z,99896.13
2022-10-26T09:18:36.318Z,100029.97
2022-10-26T09:21:16.731Z,100080.06
2022-10-26T09:23:59.935Z,100187.47
2022-10-26T09:26:34.857Z,100298.25
2022-10-26T09:29:04.444Z,100338.47
2022-10-26T09:31:43.346Z,100336.91
2022-10-26T09:34:21.744Z,100332.88
2022-10-26T09:36:55.425Z,100340.53
2022-10-26T09:39:31.656Z,100449.25
2022-10-26T09:42:05.466Z,100518.47
2022-10-26T09:44:37.934Z,100619.19
2022-10-26T09:47:11.799Z,100799.53
2022-10-26T09:49:48.583Z,100972.78
2022-10-26T09:52:16.950Z,100938.72
2022-10-26T09:54:44.941Z,100838.88
2022-10-26T09:57:17.225Z,100804.50
2022-10-26T09:59:48.217Z,100723.25
2022-10-26T10:02:35.917Z,100771.69
2022-10-26T10:05:39.212Z,100824.94
2022-10-26T10:08:18.826Z,100801.16
2022-10-26T10:11:03.249Z,100717.53
2022-10-26T10:13:33.038Z,100781.28
2022-10-26T10:16:05.842Z,100794.25
2022-10-26T10:18:35.121Z,100814.13
2022-10-26T10:21:05.852Z,100887.28
2022-10-26T10:23:35.660Z,100875.44
2022-10-26T10:26:07.094Z,100844.56
2022-10-26T10:28:35.429Z,100802.94
2022-10-26T10:31:05.324Z,100783.34
2022-10-26T10:33:36.042Z,100773.66
2022-10-26T10:36:08.792Z,100773.72
2022-10-26T10:38:42.387Z,100757.56
2022-10-26T10:41:20.539Z,100758.44
2022-10-26T10:43:51.028Z,100764.41
2022-10-26T10:46:21.845Z,100757.72
2022-10-26T10:48:56.343Z,100757.84
2022-10-26T10:51:26.599Z,100755.16
2022-10-26T10:53:56.818Z,100750.13
2022-10-26T10:56:34.096Z,100781.03
2022-10-26T10:59:24.915Z,100797.31
2022-10-26T11:02:02.450Z,100872.06
2022-10-26T11:04:54.327Z,100876.84
2022-10-26T11:07:26.814Z,100903.00
2022-10-26T11:09:57.557Z,100893.53
2022-10-26T11:12:30.680Z,100876.06
2022-10-26T11:15:03.245Z,100901.38
2022-10-26T11:17:34.028Z,100920.66
2022-10-26T11:20:11.125Z,100965.03
2022-10-26T11:22:59.535Z,100969.25
2022-10-26T11:25:30.849Z,100973.72
2022-10-26T11:28:05.553Z,100982.66
2022-10-26T11:30:37.888Z,100975.03
2022-10-26T11:33:12.996Z,100987.94
2022-10-26T11:35:46.682Z,100984.13
2022-10-26T11:38:28.197Z,100960.97
2022-10-26T11:41:16.488Z,100956.44
2022-10-26T11:43:47.675Z,100970.81
2022-10-26T11:46:21.350Z,100968.69
2022-10-26T11:48:55.900Z,100990.75
2022-10-26T11:51:38.979Z,101000.72
2022-10-26T11:54:11.988Z,101018.47
2022-10-26T11:56:45.348Z,101020.25
2022-10-26T11:59:21.040Z,101011.03
2022-10-26T12:01:51.018Z,101032.94
2022-10-26T12:04:20.086Z,101041.78
2022-10-26T12:06:50.583Z,101090.41
2022-10-26T12:09:26.520Z,101100.63
2022-10-26T12:12:02.885Z,101089.34
2022-10-26T12:14:40.459Z,101065.25
2022-10-26T12:17:14.478Z,101076.75
2022-10-26T12:19:48.344Z,101061.59
2022-10-26T12:22:19.026Z,101087.72
2022-10-26T12:25:11.119Z,101102.63
2022-10-26T12:27:53.678Z,101123.84
2022-10-26T12:30:31.031Z,101141.00
2022-10-26T12:33:00.159Z,101152.97
2022-10-26T12:35:36.653Z,101171.66
2022-10-26T12:38:49.555Z,101175.94
2022-10-26T12:41:26.646Z,101164.69
2022-10-26T12:43:59.342Z,101155.59
2022-10-26T12:46:42.585Z,101135.97
2022-10-26T12:49:43.264Z,101126.28
2022-10-26T12:52:24.037Z,101156.94
2022-10-26T12:55:16.794Z,101149.31
2022-10-26T12:57:58.705Z,101126.56
2022-10-26T13:00:28.307Z,101146.88
2022-10-26T13:03:08.058Z,101132.91
2022-10-26T13:06:21.782Z,101153.53
2022-10-26T13:08:56.310Z,101153.69
2022-10-26T13:11:32.385Z,101160.69
2022-10-26T13:14:04.389Z,101156.38
2022-10-26T13:16:32.712Z,101168.88
2022-10-26T13:19:01.549Z,101187.13
2022-10-26T13:21:29.886Z,101228.03
2022-10-26T13:24:01.753Z,101253.84
2022-10-26T13:26:32.753Z,101269.19
2022-10-26T13:29:04.154Z,101269.94
2022-10-26T13:31:57.924Z,101262.53
2022-10-26T13:34:29.866Z,101269.16
2022-10-26T13:37:18.744Z,101253.03
2022-10-26T13:39:48.836Z,101263.22
2022-10-26T13:42:19.875Z,101230.47
2022-10-26T13:44:55.477Z,101190.41
2022-10-26T13:47:28.866Z,101194.16
2022-10-26T13:50:03.261Z,101220.94
2022-10-26T13:52:36.436Z,101238.13
2022-10-26T13:55:10.478Z,101244.38
2022-10-26T13:57:41.483Z,101238.03
2022-10-26T14:00:21.414Z,101239.88
2022-10-26T14:02:49.953Z,101237.75
2022-10-26T14:05:19.796Z,101235.78
2022-10-26T14:07:55.783Z,101141.06
2022-10-26T14:10:28.746Z,101145.63
2022-10-26T14:12:57.740Z,101129.06
2022-10-26T14:15:30.211Z,101070.09
2022-10-26T14:18:00.027Z,101227.59
2022-10-26T14:20:30.054Z,101351.72
2022-10-26T14:22:58.041Z,101285.63
2022-10-26T14:25:41.675Z,101286.06
2022-10-26T14:28:23.733Z,101265.09
2022-10-26T14:30:53.439Z,101266.16
2022-10-26T14:33:29.062Z,101277.44
2022-10-26T14:35:58.615Z,101288.25
2022-10-26T14:38:34.561Z,101298.53
2022-10-26T14:41:04.488Z,101298.03
2022-10-26T14:43:32.965Z,101323.47
2022-10-26T14:46:02.497Z,101347.56
2022-10-26T14:48:33.392Z,101328.72
2022-10-26T14:51:03.307Z,101277.34
2022-10-26T14:53:36.158Z,101278.22
2022-10-26T14:56:05.935Z,101082.56
2022-10-26T14:58:35.317Z,100758.38
2022-10-26T15:01:28.301Z,100645.13
2022-10-26T15:03:59.993Z,100639.06
2022-10-26T15:06:34.197Z,100646.97
2022-10-26T15:09:04.638Z,100653.41
2022-10-26T15:11:34.536Z,100648.91
2022-10-26T15:14:03.224Z,100649.53
2022-10-26T15:16:36.001Z,100650.50
2022-10-26T15:19:10.862Z,100641.19
2022-10-26T15:21:46.113Z,100613.16
2022-10-26T15:24:30.209Z,100596.00
2022-10-26T15:27:01.196Z,100562.78
2022-10-26T15:29:41.007Z,100569.63
2022-10-26T15:32:32.043Z,100539.44
2022-10-26T15:35:31.021Z,100556.47
2022-10-26T15:38:01.188Z,100544.78
2022-10-26T15:40:32.071Z,100530.34
2022-10-26T15:43:01.726Z,100516.97
2022-10-26T15:45:33.247Z,100529.06
2022-10-26T15:48:19.454Z,100514.50
2022-10-26T15:50:49.104Z,100529.34
2022-10-26T15:53:21.506Z,100536.81
2022-10-26T15:55:50.165Z,100527.72
2022-10-26T15:58:18.316Z,100507.69
2022-10-26T16:00:46.373Z,100503.72
2022-10-26T16:03:18.787Z,100474.50
2022-10-26T16:05:47.112Z,100493.16
2022-10-26T16:08:18.453Z,100485.44
2022-10-26T16:10:48.297Z,100485.03
2022-10-26T16:13:16.630Z,100474.09
2022-10-26T16:15:45.256Z,100470.16
2022-10-26T16:18:13.069Z,100469.59
2022-10-26T16:20:42.676Z,100475.16
2022-10-26T16:23:10.601Z,100480.25
2022-10-26T16:25:42.859Z,100460.56
2022-10-26T16:28:12.744Z,100465.72
2022-10-26T16:33:13.900Z,100470.25
2022-10-26T16:35:48.203Z,100464.91
2022-10-26T16:38:16.020Z,100478.28
2022-10-26T16:40:45.135Z,100473.69
2022-10-26T16:43:12.965Z,100473.78
2022-10-26T16:45:42.010Z,100482.09
2022-10-26T16:48:14.937Z,100476.66
2022-10-26T16:50:44.101Z,100478.78
2022-10-26T16:53:12.009Z,100469.28
2022-10-26T16:55:40.094Z,100479.84
2022-10-26T16:58:08.275Z,100481.47
2022-10-26T17:00:37.211Z,100469.91
2022-10-26T17:03:05.587Z,100468.28
2022-10-26T17:05:33.546Z,100475.94
2022-10-26T17:08:03.069Z,100458.25
2022-10-26T17:10:31.062Z,100456.88
2022-10-26T17:13:01.287Z,100528.22
2022-10-26T17:15:40.984Z,101172.63
2022-10-26T17:18:10.745Z,101198.53
2022-10-26T17:20:38.883Z,101105.06
2022-10-26T17:23:08.165Z,101327.88
2022-10-26T17:25:38.400Z,101434.44
2022-10-26T17:28:06.312Z,101637.81
2022-10-26T17:30:34.997Z,101566.75
2022-10-26T17:33:02.965Z,101592.91
2022-10-26T17:35:31.074Z,101620.41
2022-10-26T17:37:59.746Z,101682.28
2022-10-26T17:40:30.229Z,101712.78
2022-10-26T17:43:00.857Z,101724.84
2022-10-26T17:45:28.797Z,101753.81
2022-10-26T17:47:56.653Z,101786.53
2022-10-26T17:50:24.517Z,101795.34
2022-10-26T17:52:52.361Z,101799.94
2022-10-26T17:55:20.275Z,101808.38
2022-10-26T17:57:49.750Z,101806.94
2022-10-26T18:00:18.446Z,101806.66
2022-10-26T18:02:46.419Z,101807.50
2022-10-26T18:05:14.381Z,101797.25
2022-10-26T18:07:44.016Z,101800.59
2022-10-26T18:10:33.259Z,101786.44
2022-10-26T18:13:02.016Z,101776.06
2022-10-26T18:15:29.900Z,101762.16
2022-10-26T18:17:58.531Z,101739.03
2022-10-26T18:20:28.709Z,101741.59
2022-10-26T18:22:57.220Z,101746.19
2022-10-26T18:25:25.457Z,101735.47
2022-10-26T18:27:53.532Z,101745.97
2022-10-26T18:30:22.978Z,101731.06
2022-10-26T18:32:55.577Z,101734.78
2022-10-26T18:35:26.579Z,101720.97
2022-10-26T18:37:54.790Z,101713.09
2022-10-26T18:40:22.723Z,101720.03
2022-10-26T18:42:50.590Z,101712.09
2022-10-26T18:45:18.599Z,101719.03
2022-10-26T18:47:48.037Z,101717.25
2022-10-26T18:50:16.299Z,101718.03
2022-10-26T18:52:44.259Z,101725.84
2022-10-26T18:55:12.358Z,101727.13
2022-10-26T18:57:40.529Z,101729.97
2022-10-26T19:00:10.013Z,101748.28
2022-10-26T19:02:38.277Z,101776.72
2022-10-26T19:05:08.561Z,101783.75
2022-10-26T19:07:39.005Z,101788.34
2022-10-26T19:10:08.014Z,101789.56
2022-10-26T19:12:35.927Z,101785.44
2022-10-26T19:15:03.895Z,101780.34
2022-10-26T19:17:31.875Z,101775.94
2022-10-26T19:19:59.704Z,101758.50
2022-10-26T19:22:29.295Z,101744.97
2022-10-26T19:24:57.023Z,101738.72
2022-10-26T19:27:24.979Z,101736.91
2022-10-26T19:30:01.548Z,101726.56
2022-10-26T19:32:29.909Z,101727.81
2022-10-26T19:34:57.736Z,101723.66
2022-10-26T19:37:28.238Z,101712.31
2022-10-26T19:39:57.703Z,101709.03
2022-10-26T19:42:25.876Z,101690.50
2022-10-26T19:44:53.704Z,101672.63
2022-10-26T19:47:21.833Z,101660.34
2022-10-26T19:49:49.599Z,101655.16
2022-10-26T19:54:46.247Z,101618.09
2022-10-26T19:57:15.449Z,101627.72
2022-10-26T19:59:45.220Z,101557.59
2022-10-26T20:02:13.074Z,101554.53
2022-10-26T20:04:41.313Z,101547.03
2022-10-26T20:07:09.473Z,101524.38
2022-10-26T20:09:37.296Z,101500.53
2022-10-26T20:12:05.266Z,101469.81
2022-10-26T20:14:34.624Z,101444.59
2022-10-26T20:17:04.726Z,101427.94
2022-10-26T20:19:33.844Z,101399.56
2022-10-26T20:22:01.726Z,101390.69
2022-10-26T20:24:29.659Z,101350.41
2022-10-26T20:26:57.527Z,101346.78
2022-10-26T20:29:25.623Z,101338.56
2022-10-26T20:31:56.249Z,101321.47
2022-10-26T20:34:24.343Z,101322.38
2022-10-26T20:36:52.196Z,101318.78
2022-10-26T20:39:20.842Z,101301.84
2022-10-26T20:41:50.229Z,101301.75
2022-10-26T20:44:25.782Z,101291.78
2022-10-26T20:46:55.617Z,101273.25
2022-10-26T20:49:24.046Z,101255.97
2022-10-26T20:52:19.538Z,101251.16
2022-10-26T20:54:52.626Z,101226.97
2022-10-26T20:57:25.961Z,101216.25
2022-10-26T20:59:57.572Z,101195.28
2022-10-26T21:02:28.530Z,101186.72
2022-10-26T21:04:56.450Z,101170.53
2022-10-26T21:07:24.366Z,101162.75
2022-10-26T21:09:52.228Z,101152.63
2022-10-26T21:12:20.155Z,101133.91
2022-10-26T21:14:47.947Z,101125.28
2022-10-26T21:17:15.779Z,101129.88
2022-10-26T21:19:47.431Z,101132.25
2022-10-26T21:22:15.753Z,101134.13
2022-10-26T21:24:45.165Z,101119.94
2022-10-26T21:27:12.943Z,101133.59
2022-10-26T21:29:40.922Z,101124.84
2022-10-26T21:32:08.782Z,101129.97
2022-10-26T21:34:36.707Z,101122.88
2022-10-26T21:37:05.907Z,101098.47
2022-10-26T21:39:33.780Z,101100.72
2022-10-26T21:42:06.842Z,101072.59
2022-10-26T21:44:42.062Z,101044.19
2022-10-26T21:47:10.665Z,101027.84
2022-10-26T21:49:38.683Z,100921.47
2022-10-26T21:52:11.072Z,100881.69
2022-10-26T21:54:39.046Z,100639.81
2022-10-26T21:57:06.998Z,100639.13
2022-10-26T21:59:37.985Z,100635.75
2022-10-26T22:02:09.482Z,100631.84
2022-10-26T22:04:38.658Z,100629.34
2022-10-26T22:07:06.517Z,100633.41
2022-10-26T22:09:49.338Z,100629.66
2022-10-26T22:12:26.008Z,100630.22
2022-10-26T22:14:56.828Z,100622.41
2022-10-26T22:17:24.610Z,100617.00
2022-10-26T22:19:52.523Z,100616.34
2022-10-26T22:22:20.522Z,100612.69
2022-10-26T22:24:49.808Z,100623.00
2022-10-26T22:27:18.230Z,100620.56
2022-10-26T22:29:46.052Z,100626.22
2022-10-26T22:32:13.852Z,100631.84
2022-10-26T22:34:41.725Z,100633.75
2022-10-26T22:37:09.652Z,100632.81
2022-10-26T22:39:37.583Z,100641.41
2022-10-26T22:42:07.204Z,100636.88
2022-10-26T22:44:35.075Z,100630.63
2022-10-26T22:47:02.847Z,100649.56
2022-10-26T22:49:31.007Z,100653.78
2022-10-26T22:51:59.872Z,100632.19
2022-10-26T22:54:28.817Z,100652.91
2022-10-26T22:56:56.852Z,100655.44
2022-10-26T22:59:26.070Z,100651.75
2022-10-26T23:01:53.968Z,100659.25
2022-10-26T23:04:21.898Z,100665.41
2022-10-26T23:06:49.712Z,100671.41
2022-10-26T23:09:17.568Z,100666.91
2022-10-26T23:11:45.481Z,100665.84
2022-10-26T23:14:13.364Z,100665.38
2022-10-26T23:16:42.560Z,100662.94
2022-10-26T23:19:10.498Z,100651.22
2022-10-26T23:21:38.313Z,100653.03
2022-10-26T23:24:06.667Z,100646.69
2022-10-26T23:26:34.477Z,100641.63
2022-10-26T23:29:02.564Z,100649.06
2022-10-26T23:31:31.154Z,100650.28
2022-10-26T23:34:00.484Z,100656.16
2022-10-26T23:36:28.393Z,100656.47
2022-10-26T23:38:56.279Z,100665.09
2022-10-26T23:41:24.145Z,100673.69
2022-10-26T23:43:52.022Z,100659.66
2022-10-26T23:46:20.182Z,100672.56
2022-10-26T23:48:48.079Z,100678.19
2022-10-26T23:51:17.391Z,100676.44
2022-10-26T23:53:45.400Z,100666.34
2022-10-26T23:56:13.192Z,100683.47
2022-10-26T23:58:41.050Z,100689.75
